<?xml version="1.0" encoding="UTF-8" standalone="no" ?>
<gpx xmlns="http://www.topografix.com/GPX/1/1" xmlns:xsi="http://www.w3.org/2001/XMLSchema-instance" xsi:schemaLocation="http://www.topografix.com/GPX/1/1 http://www.topografix.com/GPX/1/1/gpx.xsd" version="1.1" creator="VisuGPX - https://www.visugpx.com">
  <metadata>
    <name>RANDO LIZIEUX 25 KM</name>
    <desc><![CDATA[RANDO LIZIEUX 26KM.DEPART ARRIVEE SAINT JEURES.LES AUGIERS.LA CHOMETTE.PELINAC.LE FRAYSSE.LA ROCHETTE.LA BRUYERE.PIC DU LIZIEUX.SUC DE MOUNIER suivre les fleches bleues.LA BESSEAT]]></desc>
  </metadata>
  <trk>
    <name><![CDATA[20180706165756-bRK6w]]></name>
    <extensions>
      <line xmlns="http://www.topografix.com/GPX/gpx_style/0/2">
        <color>0000FF</color>
        <width>4</width>
      </line>
    </extensions>
    <trkseg>
      <trkpt lat="45.06874" lon="4.19325">
        <ele>1213</ele>
      </trkpt>
      <trkpt lat="45.0688" lon="4.19289">
        <ele>1212</ele>
      </trkpt>
      <trkpt lat="45.06892" lon="4.19225">
        <ele>1213</ele>
      </trkpt>
      <trkpt lat="45.06899" lon="4.19197">
        <ele>1213</ele>
      </trkpt>
      <trkpt lat="45.06906" lon="4.19166">
        <ele>1210</ele>
      </trkpt>
      <trkpt lat="45.06912" lon="4.19146">
        <ele>1212</ele>
      </trkpt>
      <trkpt lat="45.06946" lon="4.19161">
        <ele>1201</ele>
      </trkpt>
      <trkpt lat="45.07062" lon="4.1921">
        <ele>1184</ele>
      </trkpt>
      <trkpt lat="45.07128" lon="4.19236">
        <ele>1174</ele>
      </trkpt>
      <trkpt lat="45.07149" lon="4.19249">
        <ele>1171</ele>
      </trkpt>
      <trkpt lat="45.07173" lon="4.1927">
        <ele>1164</ele>
      </trkpt>
      <trkpt lat="45.07187" lon="4.19286">
        <ele>1163</ele>
      </trkpt>
      <trkpt lat="45.07198" lon="4.19313">
        <ele>1162</ele>
      </trkpt>
      <trkpt lat="45.07199" lon="4.19318">
        <ele>1162</ele>
      </trkpt>
      <trkpt lat="45.07201" lon="4.1932">
        <ele>1162</ele>
      </trkpt>
      <trkpt lat="45.072" lon="4.19324">
        <ele>1162</ele>
        <time>2018-03-10T16:50:18Z</time>
      </trkpt>
      <trkpt lat="45.07265" lon="4.19281">
        <ele>1158</ele>
        <time>2018-03-10T16:51:18Z</time>
      </trkpt>
      <trkpt lat="45.07306" lon="4.19227">
        <ele>1162</ele>
        <time>2018-03-10T16:52:18Z</time>
      </trkpt>
      <trkpt lat="45.07362" lon="4.19189">
        <ele>1161</ele>
        <time>2018-03-10T16:53:18Z</time>
      </trkpt>
      <trkpt lat="45.07435" lon="4.1912">
        <ele>1158</ele>
        <time>2018-03-10T16:54:18Z</time>
      </trkpt>
      <trkpt lat="45.07481" lon="4.19071">
        <ele>1157</ele>
        <time>2018-03-10T16:55:18Z</time>
      </trkpt>
      <trkpt lat="45.07541" lon="4.19011">
        <ele>1156</ele>
        <time>2018-03-10T16:56:18Z</time>
      </trkpt>
      <trkpt lat="45.07596" lon="4.18994">
        <ele>1155</ele>
        <time>2018-03-10T16:57:18Z</time>
      </trkpt>
      <trkpt lat="45.0764" lon="4.19006">
        <ele>1155</ele>
        <time>2018-03-10T16:58:18Z</time>
      </trkpt>
      <trkpt lat="45.07711" lon="4.19039">
        <ele>1153</ele>
        <time>2018-03-10T16:59:18Z</time>
      </trkpt>
      <trkpt lat="45.07766" lon="4.19088">
        <ele>1154</ele>
        <time>2018-03-10T17:00:18Z</time>
      </trkpt>
      <trkpt lat="45.07811" lon="4.19118">
        <ele>1154</ele>
        <time>2018-03-10T17:01:18Z</time>
      </trkpt>
      <trkpt lat="45.07888" lon="4.19159">
        <ele>1155</ele>
        <time>2018-03-10T17:02:18Z</time>
      </trkpt>
      <trkpt lat="45.07969" lon="4.19193">
        <ele>1156</ele>
        <time>2018-03-10T17:03:18Z</time>
      </trkpt>
      <trkpt lat="45.08005" lon="4.19227">
        <ele>1155</ele>
        <time>2018-03-10T17:04:18Z</time>
      </trkpt>
      <trkpt lat="45.08046" lon="4.19257">
        <ele>1156</ele>
        <time>2018-03-10T17:05:18Z</time>
      </trkpt>
      <trkpt lat="45.08061" lon="4.19311">
        <ele>1156</ele>
        <time>2018-03-10T17:06:18Z</time>
      </trkpt>
      <trkpt lat="45.0805" lon="4.19356">
        <ele>1160</ele>
        <time>2018-03-10T17:07:18Z</time>
      </trkpt>
      <trkpt lat="45.08031" lon="4.19401">
        <ele>1162</ele>
        <time>2018-03-10T17:08:18Z</time>
      </trkpt>
      <trkpt lat="45.08017" lon="4.1944">
        <ele>1169</ele>
        <time>2018-03-10T17:09:18Z</time>
      </trkpt>
      <trkpt lat="45.08" lon="4.19476">
        <ele>1174</ele>
        <time>2018-03-10T17:10:18Z</time>
      </trkpt>
      <trkpt lat="45.07985" lon="4.19496">
        <ele>1175</ele>
        <time>2018-03-10T17:11:18Z</time>
      </trkpt>
      <trkpt lat="45.07959" lon="4.19532">
        <ele>1179</ele>
        <time>2018-03-10T17:12:18Z</time>
      </trkpt>
      <trkpt lat="45.07947" lon="4.19564">
        <ele>1180</ele>
        <time>2018-03-10T17:13:18Z</time>
      </trkpt>
      <trkpt lat="45.07922" lon="4.19584">
        <ele>1180</ele>
        <time>2018-03-10T17:14:18Z</time>
      </trkpt>
      <trkpt lat="45.07903" lon="4.19622">
        <ele>1173</ele>
        <time>2018-03-10T17:15:18Z</time>
      </trkpt>
      <trkpt lat="45.07953" lon="4.19627">
        <ele>1183</ele>
        <time>2018-03-10T17:16:18Z</time>
      </trkpt>
      <trkpt lat="45.08003" lon="4.19639">
        <ele>1187</ele>
        <time>2018-03-10T17:17:18Z</time>
      </trkpt>
      <trkpt lat="45.08014" lon="4.19605">
        <ele>1186</ele>
        <time>2018-03-10T17:18:18Z</time>
      </trkpt>
      <trkpt lat="45.08076" lon="4.19573">
        <ele>1180</ele>
        <time>2018-03-10T17:19:18Z</time>
      </trkpt>
      <trkpt lat="45.08111" lon="4.19545">
        <ele>1170</ele>
        <time>2018-03-10T17:20:18Z</time>
      </trkpt>
      <trkpt lat="45.08178" lon="4.19515">
        <ele>1154</ele>
        <time>2018-03-10T17:21:18Z</time>
      </trkpt>
      <trkpt lat="45.08235" lon="4.19481">
        <ele>1147</ele>
        <time>2018-03-10T17:22:18Z</time>
      </trkpt>
      <trkpt lat="45.08238" lon="4.19528">
        <ele>1148</ele>
        <time>2018-03-10T17:23:18Z</time>
      </trkpt>
      <trkpt lat="45.08231" lon="4.19564">
        <ele>1148</ele>
        <time>2018-03-10T17:24:18Z</time>
      </trkpt>
      <trkpt lat="45.08228" lon="4.19601">
        <ele>1146</ele>
        <time>2018-03-10T17:25:18Z</time>
      </trkpt>
      <trkpt lat="45.08231" lon="4.19637">
        <ele>1145</ele>
        <time>2018-03-10T17:26:18Z</time>
      </trkpt>
      <trkpt lat="45.0822" lon="4.19682">
        <ele>1138</ele>
        <time>2018-03-10T17:27:18Z</time>
      </trkpt>
      <trkpt lat="45.08216" lon="4.19749">
        <ele>1134</ele>
        <time>2018-03-10T17:28:18Z</time>
      </trkpt>
      <trkpt lat="45.08266" lon="4.19751">
        <ele>1112</ele>
        <time>2018-03-10T17:29:18Z</time>
      </trkpt>
      <trkpt lat="45.08253" lon="4.19811">
        <ele>1108</ele>
        <time>2018-03-10T17:30:18Z</time>
      </trkpt>
      <trkpt lat="45.08249" lon="4.1985">
        <ele>1109</ele>
        <time>2018-03-10T17:31:18Z</time>
      </trkpt>
      <trkpt lat="45.08228" lon="4.19899">
        <ele>1106</ele>
        <time>2018-03-10T17:32:18Z</time>
      </trkpt>
      <trkpt lat="45.08222" lon="4.19942">
        <ele>1094</ele>
        <time>2018-03-10T17:33:18Z</time>
      </trkpt>
      <trkpt lat="45.08217" lon="4.19968">
        <ele>1091</ele>
        <time>2018-03-10T17:34:18Z</time>
      </trkpt>
      <trkpt lat="45.08203" lon="4.20015">
        <ele>1077</ele>
        <time>2018-03-10T17:35:18Z</time>
      </trkpt>
      <trkpt lat="45.08191" lon="4.20094">
        <ele>1066</ele>
        <time>2018-03-10T17:36:18Z</time>
      </trkpt>
      <trkpt lat="45.08184" lon="4.20107">
        <ele>1066</ele>
        <time>2018-03-10T17:37:18Z</time>
      </trkpt>
      <trkpt lat="45.0822" lon="4.20148">
        <ele>1062</ele>
        <time>2018-03-10T17:38:18Z</time>
      </trkpt>
      <trkpt lat="45.08269" lon="4.20178">
        <ele>1056</ele>
        <time>2018-03-10T17:39:18Z</time>
      </trkpt>
      <trkpt lat="45.08312" lon="4.20187">
        <ele>1055</ele>
        <time>2018-03-10T17:40:18Z</time>
      </trkpt>
      <trkpt lat="45.08341" lon="4.20236">
        <ele>1051</ele>
        <time>2018-03-10T17:41:18Z</time>
      </trkpt>
      <trkpt lat="45.08391" lon="4.20255">
        <ele>1049</ele>
        <time>2018-03-10T17:42:18Z</time>
      </trkpt>
      <trkpt lat="45.08453" lon="4.20292">
        <ele>1044</ele>
        <time>2018-03-10T17:43:18Z</time>
      </trkpt>
      <trkpt lat="45.0852" lon="4.20302">
        <ele>1039</ele>
        <time>2018-03-10T17:44:18Z</time>
      </trkpt>
      <trkpt lat="45.08579" lon="4.20294">
        <ele>1038</ele>
        <time>2018-03-10T17:45:18Z</time>
      </trkpt>
      <trkpt lat="45.08644" lon="4.20275">
        <ele>1032</ele>
        <time>2018-03-10T17:46:18Z</time>
      </trkpt>
      <trkpt lat="45.08693" lon="4.20236">
        <ele>1031</ele>
        <time>2018-03-10T17:47:18Z</time>
      </trkpt>
      <trkpt lat="45.08744" lon="4.20212">
        <ele>1030</ele>
        <time>2018-03-10T17:48:18Z</time>
      </trkpt>
      <trkpt lat="45.0877" lon="4.20159">
        <ele>1030</ele>
        <time>2018-03-10T17:49:18Z</time>
      </trkpt>
      <trkpt lat="45.08832" lon="4.20176">
        <ele>1026</ele>
        <time>2018-03-10T17:50:18Z</time>
      </trkpt>
      <trkpt lat="45.08888" lon="4.20189">
        <ele>1026</ele>
        <time>2018-03-10T17:51:18Z</time>
      </trkpt>
      <trkpt lat="45.08949" lon="4.20223">
        <ele>1025</ele>
        <time>2018-03-10T17:52:18Z</time>
      </trkpt>
      <trkpt lat="45.0899" lon="4.20236">
        <ele>1025</ele>
        <time>2018-03-10T17:53:18Z</time>
      </trkpt>
      <trkpt lat="45.09075" lon="4.20262">
        <ele>1027</ele>
        <time>2018-03-10T17:54:18Z</time>
      </trkpt>
      <trkpt lat="45.09132" lon="4.20294">
        <ele>1028</ele>
        <time>2018-03-10T17:55:18Z</time>
      </trkpt>
      <trkpt lat="45.09205" lon="4.20281">
        <ele>1034</ele>
        <time>2018-03-10T17:56:18Z</time>
      </trkpt>
      <trkpt lat="45.09278" lon="4.20268">
        <ele>1040</ele>
        <time>2018-03-10T17:57:18Z</time>
      </trkpt>
      <trkpt lat="45.09341" lon="4.2026">
        <ele>1042</ele>
        <time>2018-03-10T17:58:18Z</time>
      </trkpt>
      <trkpt lat="45.09385" lon="4.2029">
        <ele>1043</ele>
        <time>2018-03-10T17:59:18Z</time>
      </trkpt>
      <trkpt lat="45.0944" lon="4.20335">
        <ele>1046</ele>
        <time>2018-03-10T18:00:18Z</time>
      </trkpt>
      <trkpt lat="45.09506" lon="4.20375">
        <ele>1045</ele>
        <time>2018-03-10T18:01:18Z</time>
      </trkpt>
      <trkpt lat="45.0958" lon="4.20423">
        <ele>1044</ele>
        <time>2018-03-10T18:02:18Z</time>
      </trkpt>
      <trkpt lat="45.09621" lon="4.20463">
        <ele>1045</ele>
        <time>2018-03-10T18:03:18Z</time>
      </trkpt>
      <trkpt lat="45.09623" lon="4.20476">
        <ele>1045</ele>
        <time>2018-03-10T09:34:18Z</time>
      </trkpt>
      <trkpt lat="45.09664" lon="4.20521">
        <ele>1047</ele>
        <time>2018-03-10T09:35:18Z</time>
      </trkpt>
      <trkpt lat="45.09693" lon="4.20566">
        <ele>1049</ele>
        <time>2018-03-10T09:36:18Z</time>
      </trkpt>
      <trkpt lat="45.09676" lon="4.20639">
        <ele>1047</ele>
        <time>2018-03-10T09:37:18Z</time>
      </trkpt>
      <trkpt lat="45.09667" lon="4.2068">
        <ele>1044</ele>
        <time>2018-03-10T09:38:18Z</time>
      </trkpt>
      <trkpt lat="45.09641" lon="4.20744">
        <ele>1039</ele>
        <time>2018-03-10T09:39:18Z</time>
      </trkpt>
      <trkpt lat="45.0962" lon="4.20807">
        <ele>1033</ele>
        <time>2018-03-10T09:40:18Z</time>
      </trkpt>
      <trkpt lat="45.09609" lon="4.20871">
        <ele>1028</ele>
        <time>2018-03-10T09:41:18Z</time>
      </trkpt>
      <trkpt lat="45.09587" lon="4.20974">
        <ele>1022</ele>
        <time>2018-03-10T09:42:18Z</time>
      </trkpt>
      <trkpt lat="45.09579" lon="4.21006">
        <ele>1022</ele>
        <time>2018-03-10T09:43:18Z</time>
      </trkpt>
      <trkpt lat="45.0957" lon="4.21081">
        <ele>1022</ele>
        <time>2018-03-10T09:44:18Z</time>
      </trkpt>
      <trkpt lat="45.09608" lon="4.21144">
        <ele>1020</ele>
        <time>2018-03-10T09:45:18Z</time>
      </trkpt>
      <trkpt lat="45.09685" lon="4.21208">
        <ele>1018</ele>
        <time>2018-03-10T09:46:18Z</time>
      </trkpt>
      <trkpt lat="45.09727" lon="4.2127">
        <ele>1019</ele>
        <time>2018-03-10T09:47:18Z</time>
      </trkpt>
      <trkpt lat="45.09761" lon="4.2133">
        <ele>1017</ele>
        <time>2018-03-10T09:48:18Z</time>
      </trkpt>
      <trkpt lat="45.09802" lon="4.21405">
        <ele>1018</ele>
        <time>2018-03-10T09:49:18Z</time>
      </trkpt>
      <trkpt lat="45.0988" lon="4.21472">
        <ele>1019</ele>
        <time>2018-03-10T09:50:18Z</time>
      </trkpt>
      <trkpt lat="45.09936" lon="4.21517">
        <ele>1016</ele>
        <time>2018-03-10T09:51:18Z</time>
      </trkpt>
      <trkpt lat="45.09964" lon="4.21581">
        <ele>1014</ele>
        <time>2018-03-10T09:52:18Z</time>
      </trkpt>
      <trkpt lat="45.09989" lon="4.21631">
        <ele>1011</ele>
        <time>2018-03-10T09:53:18Z</time>
      </trkpt>
      <trkpt lat="45.10024" lon="4.21697">
        <ele>1007</ele>
        <time>2018-03-10T09:54:18Z</time>
      </trkpt>
      <trkpt lat="45.1005" lon="4.21777">
        <ele>1003</ele>
        <time>2018-03-10T09:55:18Z</time>
      </trkpt>
      <trkpt lat="45.10073" lon="4.21813">
        <ele>1002</ele>
        <time>2018-03-10T09:56:18Z</time>
      </trkpt>
      <trkpt lat="45.10091" lon="4.21882">
        <ele>1000</ele>
        <time>2018-03-10T09:57:18Z</time>
      </trkpt>
      <trkpt lat="45.10115" lon="4.21961">
        <ele>997</ele>
        <time>2018-03-10T09:58:18Z</time>
      </trkpt>
      <trkpt lat="45.10132" lon="4.22026">
        <ele>991</ele>
        <time>2018-03-10T09:59:18Z</time>
      </trkpt>
      <trkpt lat="45.10132" lon="4.22098">
        <ele>982</ele>
        <time>2018-03-10T10:00:18Z</time>
      </trkpt>
      <trkpt lat="45.10144" lon="4.22186">
        <ele>974</ele>
        <time>2018-03-10T10:01:18Z</time>
      </trkpt>
      <trkpt lat="45.10152" lon="4.22289">
        <ele>970</ele>
        <time>2018-03-10T10:02:18Z</time>
      </trkpt>
      <trkpt lat="45.10162" lon="4.22343">
        <ele>969</ele>
        <time>2018-03-10T10:03:18Z</time>
      </trkpt>
      <trkpt lat="45.10173" lon="4.22397">
        <ele>968</ele>
        <time>2018-03-10T10:04:18Z</time>
      </trkpt>
      <trkpt lat="45.10226" lon="4.22399">
        <ele>968</ele>
        <time>2018-03-10T10:05:18Z</time>
      </trkpt>
      <trkpt lat="45.10268" lon="4.22377">
        <ele>968</ele>
        <time>2018-03-10T10:06:18Z</time>
      </trkpt>
      <trkpt lat="45.10273" lon="4.22345">
        <ele>969</ele>
        <time>2018-03-10T10:07:18Z</time>
      </trkpt>
      <trkpt lat="45.10324" lon="4.22311">
        <ele>970</ele>
        <time>2018-03-10T10:08:18Z</time>
      </trkpt>
      <trkpt lat="45.10339" lon="4.22272">
        <ele>970</ele>
        <time>2018-03-10T10:09:18Z</time>
      </trkpt>
      <trkpt lat="45.10379" lon="4.22262">
        <ele>969</ele>
        <time>2018-03-10T10:10:18Z</time>
      </trkpt>
      <trkpt lat="45.10391" lon="4.22214">
        <ele>971</ele>
        <time>2018-03-10T10:11:18Z</time>
      </trkpt>
      <trkpt lat="45.10386" lon="4.22161">
        <ele>973</ele>
        <time>2018-03-10T10:12:18Z</time>
      </trkpt>
      <trkpt lat="45.10448" lon="4.22137">
        <ele>973</ele>
        <time>2018-03-10T10:13:18Z</time>
      </trkpt>
      <trkpt lat="45.10507" lon="4.22107">
        <ele>974</ele>
        <time>2018-03-10T10:14:18Z</time>
      </trkpt>
      <trkpt lat="45.10579" lon="4.22058">
        <ele>973</ele>
        <time>2018-03-10T10:15:18Z</time>
      </trkpt>
      <trkpt lat="45.10606" lon="4.22019">
        <ele>972</ele>
        <time>2018-03-10T10:16:18Z</time>
      </trkpt>
      <trkpt lat="45.10629" lon="4.21933">
        <ele>966</ele>
        <time>2018-03-10T10:17:18Z</time>
      </trkpt>
      <trkpt lat="45.10659" lon="4.2186">
        <ele>962</ele>
        <time>2018-03-10T10:18:18Z</time>
      </trkpt>
      <trkpt lat="45.10716" lon="4.21794">
        <ele>963</ele>
        <time>2018-03-10T10:19:18Z</time>
      </trkpt>
      <trkpt lat="45.10813" lon="4.21678">
        <ele>958</ele>
        <time>2018-03-10T10:20:18Z</time>
      </trkpt>
      <trkpt lat="45.10875" lon="4.21566">
        <ele>955</ele>
        <time>2018-03-10T10:21:18Z</time>
      </trkpt>
      <trkpt lat="45.10907" lon="4.21491">
        <ele>959</ele>
        <time>2018-03-10T10:22:18Z</time>
      </trkpt>
      <trkpt lat="45.10909" lon="4.21431">
        <ele>964</ele>
        <time>2018-03-10T10:23:18Z</time>
      </trkpt>
      <trkpt lat="45.10894" lon="4.21161">
        <ele>963</ele>
        <time>2018-03-10T10:24:18Z</time>
      </trkpt>
      <trkpt lat="45.10872" lon="4.21077">
        <ele>959</ele>
        <time>2018-03-10T10:25:18Z</time>
      </trkpt>
      <trkpt lat="45.10838" lon="4.21047">
        <ele>960</ele>
        <time>2018-03-10T10:26:18Z</time>
      </trkpt>
      <trkpt lat="45.10792" lon="4.21062">
        <ele>965</ele>
        <time>2018-03-10T10:27:18Z</time>
      </trkpt>
      <trkpt lat="45.1076" lon="4.21075">
        <ele>967</ele>
        <time>2018-03-10T10:28:18Z</time>
      </trkpt>
      <trkpt lat="45.10738" lon="4.2109">
        <ele>972</ele>
        <time>2018-03-10T10:29:18Z</time>
      </trkpt>
      <trkpt lat="45.10679" lon="4.21096">
        <ele>974</ele>
        <time>2018-03-10T10:30:18Z</time>
      </trkpt>
      <trkpt lat="45.10657" lon="4.21094">
        <ele>975</ele>
        <time>2018-03-10T10:31:18Z</time>
      </trkpt>
      <trkpt lat="45.10632" lon="4.21068">
        <ele>972</ele>
        <time>2018-03-10T10:32:18Z</time>
      </trkpt>
      <trkpt lat="45.10626" lon="4.21004">
        <ele>973</ele>
        <time>2018-03-10T10:33:18Z</time>
      </trkpt>
      <trkpt lat="45.10615" lon="4.20948">
        <ele>978</ele>
        <time>2018-03-10T10:34:18Z</time>
      </trkpt>
      <trkpt lat="45.106" lon="4.20918">
        <ele>980</ele>
        <time>2018-03-10T10:35:18Z</time>
      </trkpt>
      <trkpt lat="45.10579" lon="4.20895">
        <ele>985</ele>
        <time>2018-03-10T10:36:18Z</time>
      </trkpt>
      <trkpt lat="45.10566" lon="4.2086">
        <ele>986</ele>
        <time>2018-03-10T10:37:18Z</time>
      </trkpt>
      <trkpt lat="45.10548" lon="4.2083">
        <ele>988</ele>
        <time>2018-03-10T10:38:18Z</time>
      </trkpt>
      <trkpt lat="45.10562" lon="4.20792">
        <ele>988</ele>
        <time>2018-03-10T10:39:18Z</time>
      </trkpt>
      <trkpt lat="45.10582" lon="4.20723">
        <ele>990</ele>
        <time>2018-03-10T10:40:18Z</time>
      </trkpt>
      <trkpt lat="45.10626" lon="4.20697">
        <ele>989</ele>
        <time>2018-03-10T10:41:18Z</time>
      </trkpt>
      <trkpt lat="45.10657" lon="4.20644">
        <ele>989</ele>
        <time>2018-03-10T10:42:18Z</time>
      </trkpt>
      <trkpt lat="45.10685" lon="4.20596">
        <ele>982</ele>
        <time>2018-03-10T10:43:18Z</time>
      </trkpt>
      <trkpt lat="45.10695" lon="4.20549">
        <ele>980</ele>
        <time>2018-03-10T10:44:18Z</time>
      </trkpt>
      <trkpt lat="45.10733" lon="4.20498">
        <ele>977</ele>
        <time>2018-03-10T10:45:18Z</time>
      </trkpt>
      <trkpt lat="45.10782" lon="4.20489">
        <ele>969</ele>
        <time>2018-03-10T10:46:18Z</time>
      </trkpt>
      <trkpt lat="45.10828" lon="4.20521">
        <ele>962</ele>
        <time>2018-03-10T10:47:18Z</time>
      </trkpt>
      <trkpt lat="45.10892" lon="4.20545">
        <ele>952</ele>
        <time>2018-03-10T10:48:18Z</time>
      </trkpt>
      <trkpt lat="45.1095" lon="4.20579">
        <ele>949</ele>
        <time>2018-03-10T10:49:18Z</time>
      </trkpt>
      <trkpt lat="45.11027" lon="4.20603">
        <ele>951</ele>
        <time>2018-03-10T10:50:18Z</time>
      </trkpt>
      <trkpt lat="45.11112" lon="4.20622">
        <ele>960</ele>
        <time>2018-03-10T10:51:18Z</time>
      </trkpt>
      <trkpt lat="45.11184" lon="4.20629">
        <ele>963</ele>
        <time>2018-03-10T10:52:18Z</time>
      </trkpt>
      <trkpt lat="45.11231" lon="4.20639">
        <ele>962</ele>
        <time>2018-03-10T10:53:18Z</time>
      </trkpt>
      <trkpt lat="45.1129" lon="4.20637">
        <ele>962</ele>
        <time>2018-03-10T10:54:18Z</time>
      </trkpt>
      <trkpt lat="45.11357" lon="4.20678">
        <ele>959</ele>
        <time>2018-03-10T10:55:18Z</time>
      </trkpt>
      <trkpt lat="45.11418" lon="4.20727">
        <ele>963</ele>
        <time>2018-03-10T10:56:18Z</time>
      </trkpt>
      <trkpt lat="45.11483" lon="4.20706">
        <ele>967</ele>
        <time>2018-03-10T10:57:18Z</time>
      </trkpt>
      <trkpt lat="45.11486" lon="4.20639">
        <ele>972</ele>
        <time>2018-03-10T10:58:18Z</time>
      </trkpt>
      <trkpt lat="45.11483" lon="4.20599">
        <ele>974</ele>
        <time>2018-03-10T10:59:18Z</time>
      </trkpt>
      <trkpt lat="45.11486" lon="4.20547">
        <ele>977</ele>
        <time>2018-03-10T11:00:18Z</time>
      </trkpt>
      <trkpt lat="45.11483" lon="4.20496">
        <ele>981</ele>
        <time>2018-03-10T11:01:18Z</time>
      </trkpt>
      <trkpt lat="45.11437" lon="4.20446">
        <ele>980</ele>
        <time>2018-03-10T11:02:18Z</time>
      </trkpt>
      <trkpt lat="45.11408" lon="4.20429">
        <ele>977</ele>
        <time>2018-03-10T11:03:18Z</time>
      </trkpt>
      <trkpt lat="45.11383" lon="4.20373">
        <ele>976</ele>
        <time>2018-03-10T11:04:18Z</time>
      </trkpt>
      <trkpt lat="45.11369" lon="4.20302">
        <ele>974</ele>
        <time>2018-03-10T11:05:18Z</time>
      </trkpt>
      <trkpt lat="45.11371" lon="4.2023">
        <ele>972</ele>
        <time>2018-03-10T11:06:18Z</time>
      </trkpt>
      <trkpt lat="45.11381" lon="4.20182">
        <ele>971</ele>
        <time>2018-03-10T11:07:18Z</time>
      </trkpt>
      <trkpt lat="45.11402" lon="4.20127">
        <ele>970</ele>
        <time>2018-03-10T11:08:18Z</time>
      </trkpt>
      <trkpt lat="45.11405" lon="4.2009">
        <ele>970</ele>
        <time>2018-03-10T11:09:18Z</time>
      </trkpt>
      <trkpt lat="45.11387" lon="4.20039">
        <ele>969</ele>
        <time>2018-03-10T11:10:18Z</time>
      </trkpt>
      <trkpt lat="45.11377" lon="4.20008">
        <ele>969</ele>
        <time>2018-03-10T11:11:18Z</time>
      </trkpt>
      <trkpt lat="45.11363" lon="4.19976">
        <ele>969</ele>
        <time>2018-03-10T11:12:18Z</time>
      </trkpt>
      <trkpt lat="45.11345" lon="4.19886">
        <ele>974</ele>
        <time>2018-03-10T11:13:18Z</time>
      </trkpt>
      <trkpt lat="45.11336" lon="4.19863">
        <ele>975</ele>
        <time>2018-03-10T11:14:18Z</time>
      </trkpt>
      <trkpt lat="45.11327" lon="4.1982">
        <ele>976</ele>
        <time>2018-03-10T11:15:18Z</time>
      </trkpt>
      <trkpt lat="45.11271" lon="4.19732">
        <ele>974</ele>
        <time>2018-03-10T11:16:18Z</time>
      </trkpt>
      <trkpt lat="45.11272" lon="4.19693">
        <ele>973</ele>
        <time>2018-03-10T11:17:18Z</time>
      </trkpt>
      <trkpt lat="45.11246" lon="4.19639">
        <ele>970</ele>
        <time>2018-03-10T11:18:18Z</time>
      </trkpt>
      <trkpt lat="45.11219" lon="4.1962">
        <ele>970</ele>
        <time>2018-03-10T11:19:18Z</time>
      </trkpt>
      <trkpt lat="45.11195" lon="4.19536">
        <ele>967</ele>
        <time>2018-03-10T11:20:18Z</time>
      </trkpt>
      <trkpt lat="45.11145" lon="4.19515">
        <ele>967</ele>
        <time>2018-03-10T11:21:18Z</time>
      </trkpt>
      <trkpt lat="45.11101" lon="4.19384">
        <ele>961</ele>
        <time>2018-03-10T11:22:18Z</time>
      </trkpt>
      <trkpt lat="45.11083" lon="4.19352">
        <ele>962</ele>
        <time>2018-03-10T11:23:18Z</time>
      </trkpt>
      <trkpt lat="45.11072" lon="4.19307">
        <ele>963</ele>
        <time>2018-03-10T11:24:18Z</time>
      </trkpt>
      <trkpt lat="45.11042" lon="4.19114">
        <ele>964</ele>
        <time>2018-03-10T11:25:18Z</time>
      </trkpt>
      <trkpt lat="45.11019" lon="4.19058">
        <ele>962</ele>
        <time>2018-03-10T11:26:18Z</time>
      </trkpt>
      <trkpt lat="45.10987" lon="4.19015">
        <ele>964</ele>
        <time>2018-03-10T11:27:18Z</time>
      </trkpt>
      <trkpt lat="45.10989" lon="4.18599">
        <ele>956</ele>
        <time>2018-03-10T11:28:18Z</time>
      </trkpt>
      <trkpt lat="45.10995" lon="4.18524">
        <ele>950</ele>
        <time>2018-03-10T11:29:18Z</time>
      </trkpt>
      <trkpt lat="45.10998" lon="4.18474">
        <ele>943</ele>
        <time>2018-03-10T11:30:18Z</time>
      </trkpt>
      <trkpt lat="45.10986" lon="4.18395">
        <ele>931</ele>
        <time>2018-03-10T11:31:18Z</time>
      </trkpt>
      <trkpt lat="45.1095" lon="4.18356">
        <ele>927</ele>
        <time>2018-03-10T11:32:18Z</time>
      </trkpt>
      <trkpt lat="45.10981" lon="4.18296">
        <ele>917</ele>
        <time>2018-03-10T11:33:18Z</time>
      </trkpt>
      <trkpt lat="45.10997" lon="4.1824">
        <ele>909</ele>
        <time>2018-03-10T11:34:18Z</time>
      </trkpt>
      <trkpt lat="45.11048" lon="4.18163">
        <ele>900</ele>
        <time>2018-03-10T11:35:18Z</time>
      </trkpt>
      <trkpt lat="45.11107" lon="4.18144">
        <ele>895</ele>
        <time>2018-03-10T11:36:18Z</time>
      </trkpt>
      <trkpt lat="45.11137" lon="4.18114">
        <ele>894</ele>
        <time>2018-03-10T11:37:18Z</time>
      </trkpt>
      <trkpt lat="45.1116" lon="4.18073">
        <ele>893</ele>
        <time>2018-03-10T11:38:18Z</time>
      </trkpt>
      <trkpt lat="45.11163" lon="4.18024">
        <ele>892</ele>
        <time>2018-03-10T11:39:18Z</time>
      </trkpt>
      <trkpt lat="45.1114" lon="4.17996">
        <ele>887</ele>
        <time>2018-03-10T11:40:18Z</time>
      </trkpt>
      <trkpt lat="45.11116" lon="4.17998">
        <ele>887</ele>
        <time>2018-03-10T11:41:18Z</time>
      </trkpt>
      <trkpt lat="45.11083" lon="4.17996">
        <ele>892</ele>
        <time>2018-03-10T11:42:18Z</time>
      </trkpt>
      <trkpt lat="45.11048" lon="4.18009">
        <ele>895</ele>
        <time>2018-03-10T11:43:18Z</time>
      </trkpt>
      <trkpt lat="45.11022" lon="4.18019">
        <ele>895</ele>
        <time>2018-03-10T11:44:18Z</time>
      </trkpt>
      <trkpt lat="45.10978" lon="4.18004">
        <ele>895</ele>
        <time>2018-03-10T11:45:18Z</time>
      </trkpt>
      <trkpt lat="45.10951" lon="4.17989">
        <ele>890</ele>
        <time>2018-03-10T11:46:18Z</time>
      </trkpt>
      <trkpt lat="45.10921" lon="4.17957">
        <ele>888</ele>
        <time>2018-03-10T11:47:18Z</time>
      </trkpt>
      <trkpt lat="45.10869" lon="4.17946">
        <ele>889</ele>
        <time>2018-03-10T11:48:18Z</time>
      </trkpt>
      <trkpt lat="45.10798" lon="4.17959">
        <ele>888</ele>
        <time>2018-03-10T11:49:18Z</time>
      </trkpt>
      <trkpt lat="45.1076" lon="4.17951">
        <ele>887</ele>
        <time>2018-03-10T11:50:18Z</time>
      </trkpt>
      <trkpt lat="45.10721" lon="4.17934">
        <ele>888</ele>
        <time>2018-03-10T11:51:18Z</time>
      </trkpt>
      <trkpt lat="45.10685" lon="4.17897">
        <ele>886</ele>
        <time>2018-03-10T11:52:18Z</time>
      </trkpt>
      <trkpt lat="45.1063" lon="4.17897">
        <ele>887</ele>
        <time>2018-03-10T11:53:18Z</time>
      </trkpt>
      <trkpt lat="45.10592" lon="4.17893">
        <ele>889</ele>
        <time>2018-03-10T11:54:18Z</time>
      </trkpt>
      <trkpt lat="45.10573" lon="4.17871">
        <ele>891</ele>
        <time>2018-03-10T11:55:18Z</time>
      </trkpt>
      <trkpt lat="45.1053" lon="4.17891">
        <ele>895</ele>
        <time>2018-03-10T11:56:18Z</time>
      </trkpt>
      <trkpt lat="45.10504" lon="4.17906">
        <ele>902</ele>
        <time>2018-03-10T11:57:18Z</time>
      </trkpt>
      <trkpt lat="45.10456" lon="4.17908">
        <ele>899</ele>
        <time>2018-03-10T11:58:18Z</time>
      </trkpt>
      <trkpt lat="45.10442" lon="4.17925">
        <ele>911</ele>
        <time>2018-03-10T11:59:18Z</time>
      </trkpt>
      <trkpt lat="45.10421" lon="4.17951">
        <ele>914</ele>
        <time>2018-03-10T12:00:18Z</time>
      </trkpt>
      <trkpt lat="45.10385" lon="4.17966">
        <ele>909</ele>
        <time>2018-03-10T12:01:18Z</time>
      </trkpt>
      <trkpt lat="45.10377" lon="4.17981">
        <ele>910</ele>
        <time>2018-03-10T12:02:18Z</time>
      </trkpt>
      <trkpt lat="45.10336" lon="4.18011">
        <ele>915</ele>
        <time>2018-03-10T12:03:18Z</time>
      </trkpt>
      <trkpt lat="45.10308" lon="4.18054">
        <ele>917</ele>
        <time>2018-03-10T12:04:18Z</time>
      </trkpt>
      <trkpt lat="45.10273" lon="4.18086">
        <ele>930</ele>
        <time>2018-03-10T12:05:18Z</time>
      </trkpt>
      <trkpt lat="45.10241" lon="4.18084">
        <ele>922</ele>
        <time>2018-03-10T12:06:18Z</time>
      </trkpt>
      <trkpt lat="45.1022" lon="4.18114">
        <ele>928</ele>
        <time>2018-03-10T12:07:18Z</time>
      </trkpt>
      <trkpt lat="45.10192" lon="4.18112">
        <ele>926</ele>
        <time>2018-03-10T12:08:18Z</time>
      </trkpt>
      <trkpt lat="45.10165" lon="4.18122">
        <ele>923</ele>
        <time>2018-03-10T12:09:18Z</time>
      </trkpt>
      <trkpt lat="45.1012" lon="4.18152">
        <ele>926</ele>
        <time>2018-03-10T12:10:18Z</time>
      </trkpt>
      <trkpt lat="45.10188" lon="4.1817">
        <ele>948</ele>
        <time>2018-03-10T12:11:18Z</time>
      </trkpt>
      <trkpt lat="45.10258" lon="4.18152">
        <ele>941</ele>
        <time>2018-03-10T12:12:18Z</time>
      </trkpt>
      <trkpt lat="45.10379" lon="4.1815">
        <ele>952</ele>
        <time>2018-03-10T12:13:18Z</time>
      </trkpt>
      <trkpt lat="45.10374" lon="4.18204">
        <ele>963</ele>
        <time>2018-03-10T12:14:18Z</time>
      </trkpt>
      <trkpt lat="45.10351" lon="4.18223">
        <ele>965</ele>
        <time>2018-03-10T12:15:18Z</time>
      </trkpt>
      <trkpt lat="45.10332" lon="4.18243">
        <ele>970</ele>
        <time>2018-03-10T12:16:18Z</time>
      </trkpt>
      <trkpt lat="45.103" lon="4.18255">
        <ele>975</ele>
        <time>2018-03-10T12:17:18Z</time>
      </trkpt>
      <trkpt lat="45.10264" lon="4.18279">
        <ele>976</ele>
        <time>2018-03-10T12:18:18Z</time>
      </trkpt>
      <trkpt lat="45.10238" lon="4.18296">
        <ele>978</ele>
        <time>2018-03-10T12:19:18Z</time>
      </trkpt>
      <trkpt lat="45.10209" lon="4.1832">
        <ele>980</ele>
        <time>2018-03-10T12:20:18Z</time>
      </trkpt>
      <trkpt lat="45.10188" lon="4.18335">
        <ele>987</ele>
        <time>2018-03-10T12:21:18Z</time>
      </trkpt>
      <trkpt lat="45.10168" lon="4.18369">
        <ele>990</ele>
        <time>2018-03-10T12:22:18Z</time>
      </trkpt>
      <trkpt lat="45.10035" lon="4.18412">
        <ele>989</ele>
        <time>2018-03-10T12:23:18Z</time>
      </trkpt>
      <trkpt lat="45.10009" lon="4.18427">
        <ele>994</ele>
        <time>2018-03-10T12:24:18Z</time>
      </trkpt>
      <trkpt lat="45.09862" lon="4.18567">
        <ele>999</ele>
        <time>2018-03-10T12:25:18Z</time>
      </trkpt>
      <trkpt lat="45.09762" lon="4.18618">
        <ele>1008</ele>
        <time>2018-03-10T12:26:18Z</time>
      </trkpt>
      <trkpt lat="45.09717" lon="4.1865">
        <ele>1014</ele>
        <time>2018-03-10T12:27:18Z</time>
      </trkpt>
      <trkpt lat="45.09673" lon="4.1867">
        <ele>1020</ele>
        <time>2018-03-10T12:28:18Z</time>
      </trkpt>
      <trkpt lat="45.09643" lon="4.18689">
        <ele>1023</ele>
        <time>2018-03-10T12:29:18Z</time>
      </trkpt>
      <trkpt lat="45.09618" lon="4.18695">
        <ele>1025</ele>
        <time>2018-03-10T12:30:18Z</time>
      </trkpt>
      <trkpt lat="45.09553" lon="4.18719">
        <ele>1032</ele>
        <time>2018-03-10T12:31:18Z</time>
      </trkpt>
      <trkpt lat="45.0952" lon="4.18745">
        <ele>1034</ele>
        <time>2018-03-10T12:32:18Z</time>
      </trkpt>
      <trkpt lat="45.09493" lon="4.18749">
        <ele>1036</ele>
        <time>2018-03-10T12:33:18Z</time>
      </trkpt>
      <trkpt lat="45.09444" lon="4.18764">
        <ele>1037</ele>
        <time>2018-03-10T12:34:18Z</time>
      </trkpt>
      <trkpt lat="45.09408" lon="4.18764">
        <ele>1042</ele>
        <time>2018-03-10T12:35:18Z</time>
      </trkpt>
      <trkpt lat="45.09377" lon="4.18779">
        <ele>1044</ele>
        <time>2018-03-10T12:36:18Z</time>
      </trkpt>
      <trkpt lat="45.09352" lon="4.188">
        <ele>1046</ele>
        <time>2018-03-10T12:37:18Z</time>
      </trkpt>
      <trkpt lat="45.09312" lon="4.18813">
        <ele>1054</ele>
        <time>2018-03-10T12:38:18Z</time>
      </trkpt>
      <trkpt lat="45.09285" lon="4.18766">
        <ele>1053</ele>
        <time>2018-03-10T12:39:18Z</time>
      </trkpt>
      <trkpt lat="45.0925" lon="4.18742">
        <ele>1049</ele>
        <time>2018-03-10T12:40:18Z</time>
      </trkpt>
      <trkpt lat="45.09217" lon="4.187">
        <ele>1048</ele>
        <time>2018-03-10T12:41:18Z</time>
      </trkpt>
      <trkpt lat="45.09196" lon="4.18648">
        <ele>1042</ele>
        <time>2018-03-10T12:42:18Z</time>
      </trkpt>
      <trkpt lat="45.09194" lon="4.18636">
        <ele>1041.9</ele>
      </trkpt>
      <trkpt lat="45.09184" lon="4.18614">
        <ele>1041.7</ele>
      </trkpt>
      <trkpt lat="45.09174" lon="4.18627">
        <ele>1044.1</ele>
      </trkpt>
      <trkpt lat="45.09098" lon="4.18626">
        <ele>1051.3</ele>
      </trkpt>
      <trkpt lat="45.0908" lon="4.18612">
        <ele>1051.6</ele>
      </trkpt>
      <trkpt lat="45.09058" lon="4.1859">
        <ele>1051.7</ele>
      </trkpt>
      <trkpt lat="45.09036" lon="4.18573">
        <ele>1052.4</ele>
      </trkpt>
      <trkpt lat="45.09031" lon="4.18569">
        <ele>1052.5</ele>
      </trkpt>
      <trkpt lat="45.09021" lon="4.18562">
        <ele>1052.8</ele>
      </trkpt>
      <trkpt lat="45.08998" lon="4.18543">
        <ele>1053.4</ele>
      </trkpt>
      <trkpt lat="45.08965" lon="4.18525">
        <ele>1053.9</ele>
      </trkpt>
      <trkpt lat="45.08941" lon="4.18517">
        <ele>1054</ele>
      </trkpt>
      <trkpt lat="45.08912" lon="4.18521">
        <ele>1055.1</ele>
      </trkpt>
      <trkpt lat="45.0889" lon="4.18522">
        <ele>1054.6</ele>
      </trkpt>
      <trkpt lat="45.08883" lon="4.1852">
        <ele>1054.4</ele>
      </trkpt>
      <trkpt lat="45.08873" lon="4.1849">
        <ele>1051.9</ele>
      </trkpt>
      <trkpt lat="45.08856" lon="4.18497">
        <ele>1052.5</ele>
      </trkpt>
      <trkpt lat="45.08825" lon="4.18491">
        <ele>1052</ele>
        <time>2018-03-10T12:55:18Z</time>
      </trkpt>
      <trkpt lat="45.08814" lon="4.18539">
        <ele>1056</ele>
        <time>2018-03-10T12:56:18Z</time>
      </trkpt>
      <trkpt lat="45.08782" lon="4.18618">
        <ele>1063</ele>
        <time>2018-03-10T12:57:18Z</time>
      </trkpt>
      <trkpt lat="45.08761" lon="4.18665">
        <ele>1066</ele>
        <time>2018-03-10T12:58:18Z</time>
      </trkpt>
      <trkpt lat="45.08744" lon="4.18685">
        <ele>1073</ele>
        <time>2018-03-10T12:59:18Z</time>
      </trkpt>
      <trkpt lat="45.08711" lon="4.18693">
        <ele>1075</ele>
        <time>2018-03-10T13:00:18Z</time>
      </trkpt>
      <trkpt lat="45.08696" lon="4.18742">
        <ele>1079</ele>
        <time>2018-03-10T13:01:18Z</time>
      </trkpt>
      <trkpt lat="45.0867" lon="4.18788">
        <ele>1091</ele>
        <time>2018-03-10T13:02:18Z</time>
      </trkpt>
      <trkpt lat="45.0862" lon="4.18788">
        <ele>1095</ele>
        <time>2018-03-10T13:03:18Z</time>
      </trkpt>
      <trkpt lat="45.08585" lon="4.18781">
        <ele>1095</ele>
        <time>2018-03-10T13:04:18Z</time>
      </trkpt>
      <trkpt lat="45.08544" lon="4.18792">
        <ele>1098</ele>
        <time>2018-03-10T13:05:18Z</time>
      </trkpt>
      <trkpt lat="45.08466" lon="4.18779">
        <ele>1099</ele>
        <time>2018-03-10T13:06:18Z</time>
      </trkpt>
      <trkpt lat="45.08437" lon="4.18768">
        <ele>1097</ele>
        <time>2018-03-10T13:07:18Z</time>
      </trkpt>
      <trkpt lat="45.08406" lon="4.18758">
        <ele>1098</ele>
        <time>2018-03-10T13:08:18Z</time>
      </trkpt>
      <trkpt lat="45.08376" lon="4.18742">
        <ele>1087</ele>
        <time>2018-03-10T13:09:18Z</time>
      </trkpt>
      <trkpt lat="45.0835" lon="4.1873">
        <ele>1088</ele>
        <time>2018-03-10T13:10:18Z</time>
      </trkpt>
      <trkpt lat="45.08322" lon="4.18758">
        <ele>1105</ele>
        <time>2018-03-10T13:11:18Z</time>
      </trkpt>
      <trkpt lat="45.08285" lon="4.1876">
        <ele>1110</ele>
        <time>2018-03-10T13:12:18Z</time>
      </trkpt>
      <trkpt lat="45.08232" lon="4.18768">
        <ele>1113</ele>
        <time>2018-03-10T13:13:18Z</time>
      </trkpt>
      <trkpt lat="45.08179" lon="4.18755">
        <ele>1113</ele>
        <time>2018-03-10T13:14:18Z</time>
      </trkpt>
      <trkpt lat="45.08138" lon="4.1873">
        <ele>1112</ele>
        <time>2018-03-10T13:15:18Z</time>
      </trkpt>
      <trkpt lat="45.081" lon="4.18704">
        <ele>1113</ele>
        <time>2018-03-10T13:16:18Z</time>
      </trkpt>
      <trkpt lat="45.08046" lon="4.18659">
        <ele>1114</ele>
        <time>2018-03-10T13:17:18Z</time>
      </trkpt>
      <trkpt lat="45.0797" lon="4.18616">
        <ele>1130</ele>
        <time>2018-03-10T13:18:18Z</time>
      </trkpt>
      <trkpt lat="45.07919" lon="4.18603">
        <ele>1134</ele>
        <time>2018-03-10T13:19:18Z</time>
      </trkpt>
      <trkpt lat="45.07887" lon="4.18582">
        <ele>1130</ele>
        <time>2018-03-10T13:20:18Z</time>
      </trkpt>
      <trkpt lat="45.07855" lon="4.18584">
        <ele>1140</ele>
        <time>2018-03-10T13:21:18Z</time>
      </trkpt>
      <trkpt lat="45.07799" lon="4.18601">
        <ele>1141</ele>
        <time>2018-03-10T13:22:18Z</time>
      </trkpt>
      <trkpt lat="45.07743" lon="4.18607">
        <ele>1140</ele>
        <time>2018-03-10T13:23:18Z</time>
      </trkpt>
      <trkpt lat="45.07699" lon="4.18601">
        <ele>1142</ele>
        <time>2018-03-10T13:24:18Z</time>
      </trkpt>
      <trkpt lat="45.07666" lon="4.1862">
        <ele>1147</ele>
        <time>2018-03-10T13:25:18Z</time>
      </trkpt>
      <trkpt lat="45.07619" lon="4.18624">
        <ele>1149</ele>
        <time>2018-03-10T13:26:18Z</time>
      </trkpt>
      <trkpt lat="45.07643" lon="4.1867">
        <ele>1154</ele>
        <time>2018-03-10T13:27:18Z</time>
      </trkpt>
      <trkpt lat="45.07591" lon="4.18659">
        <ele>1153</ele>
        <time>2018-03-10T13:28:18Z</time>
      </trkpt>
      <trkpt lat="45.07564" lon="4.18659">
        <ele>1155</ele>
        <time>2018-03-10T13:29:18Z</time>
      </trkpt>
      <trkpt lat="45.0754" lon="4.18624">
        <ele>1155</ele>
        <time>2018-03-10T13:30:18Z</time>
      </trkpt>
      <trkpt lat="45.07505" lon="4.18579">
        <ele>1154</ele>
        <time>2018-03-10T13:31:18Z</time>
      </trkpt>
      <trkpt lat="45.07497" lon="4.18534">
        <ele>1155</ele>
        <time>2018-03-10T13:32:18Z</time>
      </trkpt>
      <trkpt lat="45.07485" lon="4.18498">
        <ele>1154</ele>
        <time>2018-03-10T13:33:18Z</time>
      </trkpt>
      <trkpt lat="45.07472" lon="4.18461">
        <ele>1156</ele>
        <time>2018-03-10T13:34:18Z</time>
      </trkpt>
      <trkpt lat="45.07464" lon="4.18433">
        <ele>1156</ele>
        <time>2018-03-10T13:35:18Z</time>
      </trkpt>
      <trkpt lat="45.07422" lon="4.18378">
        <ele>1159</ele>
        <time>2018-03-10T13:36:18Z</time>
      </trkpt>
      <trkpt lat="45.07335" lon="4.18309">
        <ele>1163</ele>
        <time>2018-03-10T13:37:18Z</time>
      </trkpt>
      <trkpt lat="45.07265" lon="4.18255">
        <ele>1168</ele>
        <time>2018-03-10T13:38:18Z</time>
      </trkpt>
      <trkpt lat="45.07191" lon="4.182">
        <ele>1172</ele>
        <time>2018-03-10T13:39:18Z</time>
      </trkpt>
      <trkpt lat="45.07134" lon="4.18165">
        <ele>1173</ele>
        <time>2018-03-10T13:40:18Z</time>
      </trkpt>
      <trkpt lat="45.07079" lon="4.18114">
        <ele>1178</ele>
        <time>2018-03-10T13:41:18Z</time>
      </trkpt>
      <trkpt lat="45.0702" lon="4.1809">
        <ele>1181</ele>
        <time>2018-03-10T13:42:18Z</time>
      </trkpt>
      <trkpt lat="45.06965" lon="4.18075">
        <ele>1185</ele>
        <time>2018-03-10T13:43:18Z</time>
      </trkpt>
      <trkpt lat="45.06996" lon="4.18109">
        <ele>1187</ele>
        <time>2018-03-10T13:44:18Z</time>
      </trkpt>
      <trkpt lat="45.06946" lon="4.18146">
        <ele>1191</ele>
        <time>2018-03-10T13:45:18Z</time>
      </trkpt>
      <trkpt lat="45.06908" lon="4.18165">
        <ele>1198</ele>
        <time>2018-03-10T13:46:18Z</time>
      </trkpt>
      <trkpt lat="45.06876" lon="4.18178">
        <ele>1209</ele>
        <time>2018-03-10T13:47:18Z</time>
      </trkpt>
      <trkpt lat="45.0684" lon="4.18185">
        <ele>1210</ele>
        <time>2018-03-10T13:48:18Z</time>
      </trkpt>
      <trkpt lat="45.06814" lon="4.18204">
        <ele>1219</ele>
        <time>2018-03-10T13:49:18Z</time>
      </trkpt>
      <trkpt lat="45.06768" lon="4.18221">
        <ele>1224</ele>
        <time>2018-03-10T13:50:18Z</time>
      </trkpt>
      <trkpt lat="45.0672" lon="4.18251">
        <ele>1242</ele>
        <time>2018-03-10T13:51:18Z</time>
      </trkpt>
      <trkpt lat="45.067" lon="4.1826">
        <ele>1243</ele>
        <time>2018-03-10T13:52:18Z</time>
      </trkpt>
      <trkpt lat="45.06664" lon="4.18273">
        <ele>1246</ele>
        <time>2018-03-10T13:53:18Z</time>
      </trkpt>
      <trkpt lat="45.06637" lon="4.18283">
        <ele>1249</ele>
        <time>2018-03-10T13:54:18Z</time>
      </trkpt>
      <trkpt lat="45.06614" lon="4.18309">
        <ele>1252</ele>
        <time>2018-03-10T13:55:18Z</time>
      </trkpt>
      <trkpt lat="45.06579" lon="4.1835">
        <ele>1263</ele>
        <time>2018-03-10T13:56:18Z</time>
      </trkpt>
      <trkpt lat="45.06547" lon="4.18391">
        <ele>1268</ele>
        <time>2018-03-10T13:57:18Z</time>
      </trkpt>
      <trkpt lat="45.0652" lon="4.18401">
        <ele>1269</ele>
        <time>2018-03-10T13:58:18Z</time>
      </trkpt>
      <trkpt lat="45.06485" lon="4.18388">
        <ele>1271</ele>
        <time>2018-03-10T13:59:18Z</time>
      </trkpt>
      <trkpt lat="45.06467" lon="4.18365">
        <ele>1270</ele>
        <time>2018-03-10T14:00:18Z</time>
      </trkpt>
      <trkpt lat="45.06441" lon="4.18348">
        <ele>1270</ele>
        <time>2018-03-10T14:01:18Z</time>
      </trkpt>
      <trkpt lat="45.06406" lon="4.1835">
        <ele>1274</ele>
        <time>2018-03-10T14:02:18Z</time>
      </trkpt>
      <trkpt lat="45.0638" lon="4.18367">
        <ele>1277</ele>
        <time>2018-03-10T14:03:18Z</time>
      </trkpt>
      <trkpt lat="45.06343" lon="4.18371">
        <ele>1279</ele>
        <time>2018-03-10T14:04:18Z</time>
      </trkpt>
      <trkpt lat="45.06291" lon="4.18356">
        <ele>1285</ele>
        <time>2018-03-10T14:05:18Z</time>
      </trkpt>
      <trkpt lat="45.06243" lon="4.18333">
        <ele>1288</ele>
        <time>2018-03-10T14:06:18Z</time>
      </trkpt>
      <trkpt lat="45.06223" lon="4.18315">
        <ele>1289</ele>
        <time>2018-03-10T14:07:18Z</time>
      </trkpt>
      <trkpt lat="45.06202" lon="4.18273">
        <ele>1289</ele>
        <time>2018-03-10T14:08:18Z</time>
      </trkpt>
      <trkpt lat="45.062" lon="4.18287">
        <ele>1284.8</ele>
      </trkpt>
      <trkpt lat="45.06155" lon="4.1849">
        <ele>1299.1</ele>
      </trkpt>
      <trkpt lat="45.06146" lon="4.18557">
        <ele>1302.5</ele>
      </trkpt>
      <trkpt lat="45.06073" lon="4.18621">
        <ele>1306</ele>
      </trkpt>
      <trkpt lat="45.06053" lon="4.18638">
        <ele>1306</ele>
      </trkpt>
      <trkpt lat="45.06045" lon="4.18695">
        <ele>1306</ele>
      </trkpt>
      <trkpt lat="45.06031" lon="4.18748">
        <ele>1305.2</ele>
      </trkpt>
      <trkpt lat="45.06034" lon="4.1875">
        <ele>1305.2</ele>
      </trkpt>
      <trkpt lat="45.06031" lon="4.18748">
        <ele>1305.2</ele>
      </trkpt>
      <trkpt lat="45.0601" lon="4.18736">
        <ele>1305.2</ele>
      </trkpt>
      <trkpt lat="45.05891" lon="4.18658">
        <ele>1301.4</ele>
      </trkpt>
      <trkpt lat="45.05874" lon="4.1865">
        <ele>1301.1</ele>
      </trkpt>
      <trkpt lat="45.05841" lon="4.1864">
        <ele>1301</ele>
      </trkpt>
      <trkpt lat="45.05809" lon="4.1864">
        <ele>1301</ele>
      </trkpt>
      <trkpt lat="45.05781" lon="4.18646">
        <ele>1300.7</ele>
      </trkpt>
      <trkpt lat="45.05756" lon="4.1865">
        <ele>1298.6</ele>
      </trkpt>
      <trkpt lat="45.0569" lon="4.18641">
        <ele>1293.6</ele>
      </trkpt>
      <trkpt lat="45.05675" lon="4.18636">
        <ele>1292.7</ele>
      </trkpt>
      <trkpt lat="45.05647" lon="4.18635">
        <ele>1293</ele>
        <time>2018-03-10T14:42:18Z</time>
      </trkpt>
      <trkpt lat="45.05618" lon="4.18627">
        <ele>1293</ele>
        <time>2018-03-10T14:43:18Z</time>
      </trkpt>
      <trkpt lat="45.05594" lon="4.18609">
        <ele>1293</ele>
        <time>2018-03-10T14:44:18Z</time>
      </trkpt>
      <trkpt lat="45.05568" lon="4.18603">
        <ele>1293</ele>
        <time>2018-03-10T14:45:18Z</time>
      </trkpt>
      <trkpt lat="45.05541" lon="4.18592">
        <ele>1292</ele>
        <time>2018-03-10T14:46:18Z</time>
      </trkpt>
      <trkpt lat="45.05523" lon="4.18579">
        <ele>1292</ele>
        <time>2018-03-10T14:47:18Z</time>
      </trkpt>
      <trkpt lat="45.05501" lon="4.18573">
        <ele>1292</ele>
        <time>2018-03-10T14:48:18Z</time>
      </trkpt>
      <trkpt lat="45.05491" lon="4.18605">
        <ele>1290</ele>
        <time>2018-03-10T14:49:18Z</time>
      </trkpt>
      <trkpt lat="45.05474" lon="4.18631">
        <ele>1290</ele>
        <time>2018-03-10T14:50:18Z</time>
      </trkpt>
      <trkpt lat="45.05442" lon="4.18659">
        <ele>1290</ele>
        <time>2018-03-10T14:51:18Z</time>
      </trkpt>
      <trkpt lat="45.05419" lon="4.18646">
        <ele>1290</ele>
        <time>2018-03-10T14:52:18Z</time>
      </trkpt>
      <trkpt lat="45.05404" lon="4.18627">
        <ele>1280</ele>
        <time>2018-03-10T14:53:18Z</time>
      </trkpt>
      <trkpt lat="45.05385" lon="4.18609">
        <ele>1278</ele>
        <time>2018-03-10T14:54:18Z</time>
      </trkpt>
      <trkpt lat="45.05374" lon="4.18633">
        <ele>1277</ele>
        <time>2018-03-10T14:55:18Z</time>
      </trkpt>
      <trkpt lat="45.05391" lon="4.18678">
        <ele>1284</ele>
        <time>2018-03-10T14:56:18Z</time>
      </trkpt>
      <trkpt lat="45.054" lon="4.18723">
        <ele>1285</ele>
        <time>2018-03-10T14:57:18Z</time>
      </trkpt>
      <trkpt lat="45.05391" lon="4.18738">
        <ele>1284</ele>
        <time>2018-03-10T14:58:18Z</time>
      </trkpt>
      <trkpt lat="45.0536" lon="4.18783">
        <ele>1278</ele>
        <time>2018-03-10T14:59:18Z</time>
      </trkpt>
      <trkpt lat="45.05374" lon="4.18813">
        <ele>1278</ele>
        <time>2018-03-10T15:00:18Z</time>
      </trkpt>
      <trkpt lat="45.05421" lon="4.18818">
        <ele>1283</ele>
        <time>2018-03-10T15:01:18Z</time>
      </trkpt>
      <trkpt lat="45.05465" lon="4.18809">
        <ele>1284</ele>
        <time>2018-03-10T15:02:18Z</time>
      </trkpt>
      <trkpt lat="45.05524" lon="4.18826">
        <ele>1283</ele>
        <time>2018-03-10T15:03:18Z</time>
      </trkpt>
      <trkpt lat="45.05573" lon="4.18852">
        <ele>1281</ele>
        <time>2018-03-10T15:04:18Z</time>
      </trkpt>
      <trkpt lat="45.05629" lon="4.18884">
        <ele>1283</ele>
        <time>2018-03-10T15:05:18Z</time>
      </trkpt>
      <trkpt lat="45.05635" lon="4.18929">
        <ele>1280</ele>
        <time>2018-03-10T15:06:18Z</time>
      </trkpt>
      <trkpt lat="45.05624" lon="4.18981">
        <ele>1279</ele>
        <time>2018-03-10T15:07:18Z</time>
      </trkpt>
      <trkpt lat="45.05632" lon="4.19013">
        <ele>1276</ele>
        <time>2018-03-10T15:08:18Z</time>
      </trkpt>
      <trkpt lat="45.05642" lon="4.19066">
        <ele>1274</ele>
        <time>2018-03-10T15:09:18Z</time>
      </trkpt>
      <trkpt lat="45.05647" lon="4.19131">
        <ele>1271</ele>
        <time>2018-03-10T15:10:18Z</time>
      </trkpt>
      <trkpt lat="45.05621" lon="4.19178">
        <ele>1267</ele>
        <time>2018-03-10T15:11:18Z</time>
      </trkpt>
      <trkpt lat="45.05645" lon="4.19245">
        <ele>1269</ele>
        <time>2018-03-10T15:12:18Z</time>
      </trkpt>
      <trkpt lat="45.05674" lon="4.193">
        <ele>1275</ele>
        <time>2018-03-10T15:13:18Z</time>
      </trkpt>
      <trkpt lat="45.0572" lon="4.19335">
        <ele>1275</ele>
        <time>2018-03-10T15:14:18Z</time>
      </trkpt>
      <trkpt lat="45.05765" lon="4.19378">
        <ele>1282</ele>
        <time>2018-03-10T15:15:18Z</time>
      </trkpt>
      <trkpt lat="45.05782" lon="4.19453">
        <ele>1279</ele>
        <time>2018-03-10T15:16:18Z</time>
      </trkpt>
      <trkpt lat="45.05814" lon="4.1953">
        <ele>1276</ele>
        <time>2018-03-10T15:17:18Z</time>
      </trkpt>
      <trkpt lat="45.05861" lon="4.19581">
        <ele>1287</ele>
        <time>2018-03-10T15:18:18Z</time>
      </trkpt>
      <trkpt lat="45.0587" lon="4.19648">
        <ele>1280</ele>
        <time>2018-03-10T15:19:18Z</time>
      </trkpt>
      <trkpt lat="45.05885" lon="4.19706">
        <ele>1273</ele>
        <time>2018-03-10T15:20:18Z</time>
      </trkpt>
      <trkpt lat="45.0592" lon="4.19742">
        <ele>1279</ele>
        <time>2018-03-10T15:21:18Z</time>
      </trkpt>
      <trkpt lat="45.05921" lon="4.19777">
        <ele>1274</ele>
        <time>2018-03-10T15:22:18Z</time>
      </trkpt>
      <trkpt lat="45.05929" lon="4.19828">
        <ele>1268</ele>
        <time>2018-03-10T15:23:18Z</time>
      </trkpt>
      <trkpt lat="45.05976" lon="4.19871">
        <ele>1264</ele>
        <time>2018-03-10T15:24:18Z</time>
      </trkpt>
      <trkpt lat="45.06023" lon="4.19893">
        <ele>1269</ele>
        <time>2018-03-10T15:25:18Z</time>
      </trkpt>
      <trkpt lat="45.06097" lon="4.19912">
        <ele>1273</ele>
        <time>2018-03-10T15:26:18Z</time>
      </trkpt>
      <trkpt lat="45.06139" lon="4.19936">
        <ele>1268</ele>
        <time>2018-03-10T15:27:18Z</time>
      </trkpt>
      <trkpt lat="45.06185" lon="4.19966">
        <ele>1268</ele>
        <time>2018-03-10T15:28:18Z</time>
      </trkpt>
      <trkpt lat="45.06218" lon="4.19996">
        <ele>1266</ele>
        <time>2018-03-10T15:29:18Z</time>
      </trkpt>
      <trkpt lat="45.06211" lon="4.19974">
        <ele>1267</ele>
        <time>2018-03-10T15:30:18Z</time>
      </trkpt>
      <trkpt lat="45.06205" lon="4.19951">
        <ele>1268</ele>
        <time>2018-03-10T15:31:18Z</time>
      </trkpt>
      <trkpt lat="45.06192" lon="4.19936">
        <ele>1269</ele>
        <time>2018-03-10T15:32:18Z</time>
      </trkpt>
      <trkpt lat="45.06174" lon="4.19914">
        <ele>1275</ele>
        <time>2018-03-10T15:33:18Z</time>
      </trkpt>
      <trkpt lat="45.06158" lon="4.19897">
        <ele>1277</ele>
        <time>2018-03-10T15:34:18Z</time>
      </trkpt>
      <trkpt lat="45.06139" lon="4.19871">
        <ele>1281</ele>
        <time>2018-03-10T15:35:18Z</time>
      </trkpt>
      <trkpt lat="45.0612" lon="4.19841">
        <ele>1282</ele>
        <time>2018-03-10T15:36:18Z</time>
      </trkpt>
      <trkpt lat="45.06133" lon="4.19811">
        <ele>1299</ele>
        <time>2018-03-10T15:37:18Z</time>
      </trkpt>
      <trkpt lat="45.0615" lon="4.19777">
        <ele>1307</ele>
        <time>2018-03-10T15:38:18Z</time>
      </trkpt>
      <trkpt lat="45.06202" lon="4.19766">
        <ele>1309</ele>
        <time>2018-03-10T15:39:18Z</time>
      </trkpt>
      <trkpt lat="45.06205" lon="4.19725">
        <ele>1328</ele>
        <time>2018-03-10T15:40:18Z</time>
      </trkpt>
      <trkpt lat="45.06196" lon="4.19693">
        <ele>1334</ele>
        <time>2018-03-10T15:41:18Z</time>
      </trkpt>
      <trkpt lat="45.06185" lon="4.19669">
        <ele>1341</ele>
        <time>2018-03-10T15:42:18Z</time>
      </trkpt>
      <trkpt lat="45.06159" lon="4.19612">
        <ele>1357</ele>
        <time>2018-03-10T15:43:18Z</time>
      </trkpt>
      <trkpt lat="45.06147" lon="4.19575">
        <ele>1364</ele>
        <time>2018-03-10T15:44:18Z</time>
      </trkpt>
      <trkpt lat="45.0612" lon="4.19609">
        <ele>1352</ele>
        <time>2018-03-10T15:45:18Z</time>
      </trkpt>
      <trkpt lat="45.06099" lon="4.19612">
        <ele>1350</ele>
        <time>2018-03-10T15:46:18Z</time>
      </trkpt>
      <trkpt lat="45.06083" lon="4.19579">
        <ele>1350</ele>
        <time>2018-03-10T15:47:18Z</time>
      </trkpt>
      <trkpt lat="45.06077" lon="4.19532">
        <ele>1345</ele>
        <time>2018-03-10T15:48:18Z</time>
      </trkpt>
      <trkpt lat="45.06065" lon="4.19466">
        <ele>1343</ele>
        <time>2018-03-10T15:49:18Z</time>
      </trkpt>
      <trkpt lat="45.06039" lon="4.19433">
        <ele>1338</ele>
        <time>2018-03-10T15:50:18Z</time>
      </trkpt>
      <trkpt lat="45.0602" lon="4.19431">
        <ele>1334</ele>
        <time>2018-03-10T15:51:18Z</time>
      </trkpt>
      <trkpt lat="45.06008" lon="4.19397">
        <ele>1330</ele>
        <time>2018-03-10T15:52:18Z</time>
      </trkpt>
      <trkpt lat="45.06" lon="4.19348">
        <ele>1327</ele>
        <time>2018-03-10T15:53:18Z</time>
      </trkpt>
      <trkpt lat="45.05992" lon="4.19303">
        <ele>1316</ele>
        <time>2018-03-10T15:54:18Z</time>
      </trkpt>
      <trkpt lat="45.05985" lon="4.1927">
        <ele>1315</ele>
        <time>2018-03-10T15:55:18Z</time>
      </trkpt>
      <trkpt lat="45.05998" lon="4.1923">
        <ele>1313</ele>
        <time>2018-03-10T15:56:18Z</time>
      </trkpt>
      <trkpt lat="45.05994" lon="4.19195">
        <ele>1311</ele>
        <time>2018-03-10T15:57:18Z</time>
      </trkpt>
      <trkpt lat="45.06005" lon="4.19154">
        <ele>1312</ele>
        <time>2018-03-10T15:58:18Z</time>
      </trkpt>
      <trkpt lat="45.06005" lon="4.19112">
        <ele>1311</ele>
        <time>2018-03-10T15:59:18Z</time>
      </trkpt>
      <trkpt lat="45.06015" lon="4.19056">
        <ele>1308</ele>
        <time>2018-03-10T16:00:18Z</time>
      </trkpt>
      <trkpt lat="45.06024" lon="4.19006">
        <ele>1307</ele>
        <time>2018-03-10T16:01:18Z</time>
      </trkpt>
      <trkpt lat="45.06027" lon="4.18951">
        <ele>1306</ele>
        <time>2018-03-10T16:02:18Z</time>
      </trkpt>
      <trkpt lat="45.06029" lon="4.18895">
        <ele>1306</ele>
        <time>2018-03-10T16:03:18Z</time>
      </trkpt>
      <trkpt lat="45.06041" lon="4.18833">
        <ele>1307</ele>
        <time>2018-03-10T16:04:18Z</time>
      </trkpt>
      <trkpt lat="45.06049" lon="4.18781">
        <ele>1307</ele>
        <time>2018-03-10T16:05:18Z</time>
      </trkpt>
      <trkpt lat="45.06097" lon="4.18773">
        <ele>1308</ele>
        <time>2018-03-10T16:06:18Z</time>
      </trkpt>
      <trkpt lat="45.06152" lon="4.18794">
        <ele>1308</ele>
        <time>2018-03-10T16:07:18Z</time>
      </trkpt>
      <trkpt lat="45.06191" lon="4.1883">
        <ele>1307</ele>
        <time>2018-03-10T16:08:18Z</time>
      </trkpt>
      <trkpt lat="45.06239" lon="4.18861">
        <ele>1307</ele>
        <time>2018-03-10T16:09:18Z</time>
      </trkpt>
      <trkpt lat="45.06297" lon="4.18876">
        <ele>1304</ele>
        <time>2018-03-10T16:10:18Z</time>
      </trkpt>
      <trkpt lat="45.06335" lon="4.1891">
        <ele>1302</ele>
        <time>2018-03-10T16:11:18Z</time>
      </trkpt>
      <trkpt lat="45.06362" lon="4.18948">
        <ele>1302</ele>
        <time>2018-03-10T16:12:18Z</time>
      </trkpt>
      <trkpt lat="45.06393" lon="4.19004">
        <ele>1302</ele>
        <time>2018-03-10T16:13:18Z</time>
      </trkpt>
      <trkpt lat="45.06417" lon="4.19079">
        <ele>1299</ele>
        <time>2018-03-10T16:14:18Z</time>
      </trkpt>
      <trkpt lat="45.06437" lon="4.19142">
        <ele>1296</ele>
        <time>2018-03-10T16:15:18Z</time>
      </trkpt>
      <trkpt lat="45.06444" lon="4.1921">
        <ele>1291</ele>
        <time>2018-03-10T16:16:18Z</time>
      </trkpt>
      <trkpt lat="45.06449" lon="4.1926">
        <ele>1287</ele>
        <time>2018-03-10T16:17:18Z</time>
      </trkpt>
      <trkpt lat="45.06441" lon="4.19311">
        <ele>1286</ele>
        <time>2018-03-10T16:18:18Z</time>
      </trkpt>
      <trkpt lat="45.06441" lon="4.19356">
        <ele>1284</ele>
        <time>2018-03-10T16:19:18Z</time>
      </trkpt>
      <trkpt lat="45.06449" lon="4.19397">
        <ele>1283</ele>
        <time>2018-03-10T16:20:18Z</time>
      </trkpt>
      <trkpt lat="45.06446" lon="4.19451">
        <ele>1279</ele>
        <time>2018-03-10T16:21:18Z</time>
      </trkpt>
      <trkpt lat="45.06452" lon="4.19504">
        <ele>1274</ele>
        <time>2018-03-10T16:22:18Z</time>
      </trkpt>
      <trkpt lat="45.06452" lon="4.19554">
        <ele>1273</ele>
        <time>2018-03-10T16:23:18Z</time>
      </trkpt>
      <trkpt lat="45.06456" lon="4.19597">
        <ele>1269</ele>
        <time>2018-03-10T16:24:18Z</time>
      </trkpt>
      <trkpt lat="45.06447" lon="4.19648">
        <ele>1269</ele>
        <time>2018-03-10T16:25:18Z</time>
      </trkpt>
      <trkpt lat="45.06443" lon="4.19695">
        <ele>1266</ele>
        <time>2018-03-10T16:26:18Z</time>
      </trkpt>
      <trkpt lat="45.06441" lon="4.19706">
        <ele>1266</ele>
        <time>2018-03-10T16:27:18Z</time>
      </trkpt>
      <trkpt lat="45.06447" lon="4.19749">
        <ele>1265</ele>
        <time>2018-03-10T16:28:18Z</time>
      </trkpt>
      <trkpt lat="45.06447" lon="4.19807">
        <ele>1259</ele>
        <time>2018-03-10T16:29:18Z</time>
      </trkpt>
      <trkpt lat="45.06487" lon="4.19794">
        <ele>1255</ele>
        <time>2018-03-10T16:30:18Z</time>
      </trkpt>
      <trkpt lat="45.06562" lon="4.19742">
        <ele>1245</ele>
        <time>2018-03-10T16:31:18Z</time>
      </trkpt>
      <trkpt lat="45.06591" lon="4.19706">
        <ele>1237</ele>
        <time>2018-03-10T16:32:18Z</time>
      </trkpt>
      <trkpt lat="45.0663" lon="4.19674">
        <ele>1234</ele>
        <time>2018-03-10T16:33:18Z</time>
      </trkpt>
      <trkpt lat="45.06681" lon="4.19631">
        <ele>1227</ele>
        <time>2018-03-10T16:34:18Z</time>
      </trkpt>
      <trkpt lat="45.06717" lon="4.1959">
        <ele>1225</ele>
        <time>2018-03-10T16:35:18Z</time>
      </trkpt>
      <trkpt lat="45.06741" lon="4.19547">
        <ele>1230</ele>
        <time>2018-03-10T16:36:18Z</time>
      </trkpt>
      <trkpt lat="45.06809" lon="4.19451">
        <ele>1222</ele>
        <time>2018-03-10T16:37:18Z</time>
      </trkpt>
      <trkpt lat="45.06847" lon="4.19393">
        <ele>1213</ele>
        <time>2018-03-10T16:38:18Z</time>
      </trkpt>
      <trkpt lat="45.06876" lon="4.19324">
        <ele>1212</ele>
        <time>2018-03-10T16:39:18Z</time>
      </trkpt>
    </trkseg>
  </trk>
</gpx>